sensor_id;sensor_type;location;lat;lon;timestamp;temperature;humidity
12872;DHT22;6504;53.766;9.626;2023-04-24T00:00:16;13.50;99.90
12872;DHT22;6504;53.766;9.626;2023-04-24T00:02:45;13.50;99.90
12872;DHT22;6504;53.766;9.626;2023-04-24T00:05:14;13.50;99.90
12872;DHT22;6504;53.766;9.626;2023-04-24T00:07:45;13.50;99.90
12872;DHT22;6504;53.766;9.626;2023-04-24T00:10:13;13.50;99.90
12872;DHT22;6504;53.766;9.626;2023-04-24T00:12:41;13.50;99.90
12872;DHT22;6504;53.766;9.626;2023-04-24T00:15:10;13.50;99.90
12872;DHT22;6504;53.766;9.626;2023-04-24T00:17:38;13.40;99.90
12872;DHT22;6504;53.766;9.626;2023-04-24T00:20:07;13.40;99.90
12872;DHT22;6504;53.766;9.626;2023-04-24T00:22:37;13.40;99.90
12872;DHT22;6504;53.766;9.626;2023-04-24T00:25:07;13.40;99.90
12872;DHT22;6504;53.766;9.626;2023-04-24T00:27:35;13.40;99.90
12872;DHT22;6504;53.766;9.626;2023-04-24T00:30:05;13.40;99.90
12872;DHT22;6504;53.766;9.626;2023-04-24T00:32:33;13.40;99.90
12872;DHT22;6504;53.766;9.626;2023-04-24T00:35:01;13.40;99.90
12872;DHT22;6504;53.766;9.626;2023-04-24T00:37:29;13.40;99.90
12872;DHT22;6504;53.766;9.626;2023-04-24T00:39:57;13.30;99.90
12872;DHT22;6504;53.766;9.626;2023-04-24T00:42:26;13.40;99.90
12872;DHT22;6504;53.766;9.626;2023-04-24T00:44:55;13.30;99.90
12872;DHT22;6504;53.766;9.626;2023-04-24T00:47:25;13.30;99.90
12872;DHT22;6504;53.766;9.626;2023-04-24T00:49:53;13.20;99.90
12872;DHT22;6504;53.766;9.626;2023-04-24T00:52:21;13.20;99.90
12872;DHT22;6504;53.766;9.626;2023-04-24T00:54:51;13.20;99.90
12872;DHT22;6504;53.766;9.626;2023-04-24T00:57:19;13.20;99.90
12872;DHT22;6504;53.766;9.626;2023-04-24T00:59:50;13.20;99.90
12872;DHT22;6504;53.766;9.626;2023-04-24T01:02:18;13.20;99.90
12872;DHT22;6504;53.766;9.626;2023-04-24T01:04:47;13.20;99.90
12872;DHT22;6504;53.766;9.626;2023-04-24T01:07:16;13.10;99.90
12872;DHT22;6504;53.766;9.626;2023-04-24T01:09:45;13.10;99.90
12872;DHT22;6504;53.766;9.626;2023-04-24T01:12:15;13.10;99.90
12872;DHT22;6504;53.766;9.626;2023-04-24T01:14:43;13.10;99.90
12872;DHT22;6504;53.766;9.626;2023-04-24T01:17:13;13.10;99.90
12872;DHT22;6504;53.766;9.626;2023-04-24T01:19:42;13.00;99.90
12872;DHT22;6504;53.766;9.626;2023-04-24T01:22:13;13.00;99.90
12872;DHT22;6504;53.766;9.626;2023-04-24T01:24:41;13.00;99.90
12872;DHT22;6504;53.766;9.626;2023-04-24T01:27:10;12.90;99.90
12872;DHT22;6504;53.766;9.626;2023-04-24T01:29:38;12.90;99.90
12872;DHT22;6504;53.766;9.626;2023-04-24T01:32:07;12.90;99.90
12872;DHT22;6504;53.766;9.626;2023-04-24T01:34:35;12.80;99.90
12872;DHT22;6504;53.766;9.626;2023-04-24T01:37:03;12.80;99.90
12872;DHT22;6504;53.766;9.626;2023-04-24T01:39:33;12.80;99.90
12872;DHT22;6504;53.766;9.626;2023-04-24T01:42:01;12.80;99.90
12872;DHT22;6504;53.766;9.626;2023-04-24T01:44:29;12.80;99.90
12872;DHT22;6504;53.766;9.626;2023-04-24T01:46:58;12.70;99.90
12872;DHT22;6504;53.766;9.626;2023-04-24T01:49:26;12.70;99.90
12872;DHT22;6504;53.766;9.626;2023-04-24T01:51:54;12.70;99.90
12872;DHT22;6504;53.766;9.626;2023-04-24T01:54:22;12.70;99.90
12872;DHT22;6504;53.766;9.626;2023-04-24T01:56:51;12.70;99.90
12872;DHT22;6504;53.766;9.626;2023-04-24T01:59:20;12.70;99.90
12872;DHT22;6504;53.766;9.626;2023-04-24T02:01:49;12.70;99.90
12872;DHT22;6504;53.766;9.626;2023-04-24T02:04:17;12.70;99.90
12872;DHT22;6504;53.766;9.626;2023-04-24T02:06:45;12.70;99.90
12872;DHT22;6504;53.766;9.626;2023-04-24T02:09:13;12.60;99.90
12872;DHT22;6504;53.766;9.626;2023-04-24T02:11:41;12.60;99.90
12872;DHT22;6504;53.766;9.626;2023-04-24T02:14:11;12.70;99.90
12872;DHT22;6504;53.766;9.626;2023-04-24T02:16:39;12.60;99.90
12872;DHT22;6504;53.766;9.626;2023-04-24T02:19:07;12.60;99.90
12872;DHT22;6504;53.766;9.626;2023-04-24T02:21:35;12.60;99.90
12872;DHT22;6504;53.766;9.626;2023-04-24T02:24:03;12.60;99.90
12872;DHT22;6504;53.766;9.626;2023-04-24T02:26:31;12.50;99.90
12872;DHT22;6504;53.766;9.626;2023-04-24T02:28:59;12.50;99.90
12872;DHT22;6504;53.766;9.626;2023-04-24T02:31:29;12.50;99.90
12872;DHT22;6504;53.766;9.626;2023-04-24T02:33:57;12.50;99.90
12872;DHT22;6504;53.766;9.626;2023-04-24T02:36:25;12.40;99.90
12872;DHT22;6504;53.766;9.626;2023-04-24T02:38:53;12.40;99.90
12872;DHT22;6504;53.766;9.626;2023-04-24T02:41:21;12.30;99.90
12872;DHT22;6504;53.766;9.626;2023-04-24T02:43:49;12.30;99.90
12872;DHT22;6504;53.766;9.626;2023-04-24T02:46:18;12.20;99.90
12872;DHT22;6504;53.766;9.626;2023-04-24T02:48:48;12.20;99.90
12872;DHT22;6504;53.766;9.626;2023-04-24T02:51:16;12.20;99.90
12872;DHT22;6504;53.766;9.626;2023-04-24T02:53:44;12.20;99.90
12872;DHT22;6504;53.766;9.626;2023-04-24T02:56:12;12.10;99.90
12872;DHT22;6504;53.766;9.626;2023-04-24T02:58:40;12.10;99.90
12872;DHT22;6504;53.766;9.626;2023-04-24T03:01:08;12.10;99.90
12872;DHT22;6504;53.766;9.626;2023-04-24T03:03:37;12.10;99.90
12872;DHT22;6504;53.766;9.626;2023-04-24T03:06:07;12.10;99.90
12872;DHT22;6504;53.766;9.626;2023-04-24T03:08:35;12.10;99.90
12872;DHT22;6504;53.766;9.626;2023-04-24T03:11:04;12.10;99.90
12872;DHT22;6504;53.766;9.626;2023-04-24T03:13:32;12.10;99.90
12872;DHT22;6504;53.766;9.626;2023-04-24T03:15:59;12.10;99.90
12872;DHT22;6504;53.766;9.626;2023-04-24T03:18:28;12.10;99.90
12872;DHT22;6504;53.766;9.626;2023-04-24T03:20:56;12.10;99.90
12872;DHT22;6504;53.766;9.626;2023-04-24T03:23:25;12.10;99.90
12872;DHT22;6504;53.766;9.626;2023-04-24T03:25:53;12.00;99.90
12872;DHT22;6504;53.766;9.626;2023-04-24T03:28:22;12.00;99.90
12872;DHT22;6504;53.766;9.626;2023-04-24T03:30:51;12.00;99.90
12872;DHT22;6504;53.766;9.626;2023-04-24T03:33:19;12.00;99.90
12872;DHT22;6504;53.766;9.626;2023-04-24T03:35:47;11.90;99.90
12872;DHT22;6504;53.766;9.626;2023-04-24T03:38:15;11.80;99.90
12872;DHT22;6504;53.766;9.626;2023-04-24T03:40:45;11.80;99.90
12872;DHT22;6504;53.766;9.626;2023-04-24T03:43:13;11.80;99.90
12872;DHT22;6504;53.766;9.626;2023-04-24T03:45:41;11.80;99.90
12872;DHT22;6504;53.766;9.626;2023-04-24T03:48:09;11.80;99.90
12872;DHT22;6504;53.766;9.626;2023-04-24T03:50:37;11.80;99.90
12872;DHT22;6504;53.766;9.626;2023-04-24T03:53:05;11.80;99.90
12872;DHT22;6504;53.766;9.626;2023-04-24T03:55:33;11.70;99.90
12872;DHT22;6504;53.766;9.626;2023-04-24T03:58:03;11.70;99.90
12872;DHT22;6504;53.766;9.626;2023-04-24T04:00:31;11.70;99.90
12872;DHT22;6504;53.766;9.626;2023-04-24T04:03:00;11.70;99.90
12872;DHT22;6504;53.766;9.626;2023-04-24T04:05:28;11.70;99.90
12872;DHT22;6504;53.766;9.626;2023-04-24T04:07:56;11.60;99.90
12872;DHT22;6504;53.766;9.626;2023-04-24T04:10:24;11.60;99.90
12872;DHT22;6504;53.766;9.626;2023-04-24T04:12:52;11.60;99.90
12872;DHT22;6504;53.766;9.626;2023-04-24T04:15:21;11.60;99.90
12872;DHT22;6504;53.766;9.626;2023-04-24T04:17:49;11.60;99.90
12872;DHT22;6504;53.766;9.626;2023-04-24T04:20:17;11.60;99.90
12872;DHT22;6504;53.766;9.626;2023-04-24T04:22:45;11.60;99.90
12872;DHT22;6504;53.766;9.626;2023-04-24T04:25:13;11.50;99.90
12872;DHT22;6504;53.766;9.626;2023-04-24T04:27:41;11.60;99.90
12872;DHT22;6504;53.766;9.626;2023-04-24T04:30:10;11.50;99.90
12872;DHT22;6504;53.766;9.626;2023-04-24T04:32:39;11.50;99.90
12872;DHT22;6504;53.766;9.626;2023-04-24T04:35:07;11.50;99.90
12872;DHT22;6504;53.766;9.626;2023-04-24T04:37:36;11.50;99.90
12872;DHT22;6504;53.766;9.626;2023-04-24T04:40:05;11.50;99.90
12872;DHT22;6504;53.766;9.626;2023-04-24T04:42:34;11.50;99.90
12872;DHT22;6504;53.766;9.626;2023-04-24T04:45:02;11.50;99.90
12872;DHT22;6504;53.766;9.626;2023-04-24T04:47:30;11.50;99.90
12872;DHT22;6504;53.766;9.626;2023-04-24T04:50:00;11.50;99.90
12872;DHT22;6504;53.766;9.626;2023-04-24T04:52:30;11.50;99.90
12872;DHT22;6504;53.766;9.626;2023-04-24T04:54:58;11.50;99.90
12872;DHT22;6504;53.766;9.626;2023-04-24T04:57:26;11.50;99.90
12872;DHT22;6504;53.766;9.626;2023-04-24T04:59:54;11.40;99.90
12872;DHT22;6504;53.766;9.626;2023-04-24T05:02:22;11.40;99.90
12872;DHT22;6504;53.766;9.626;2023-04-24T05:04:51;11.40;99.90
12872;DHT22;6504;53.766;9.626;2023-04-24T05:07:20;11.40;99.90
12872;DHT22;6504;53.766;9.626;2023-04-24T05:09:48;11.40;99.90
12872;DHT22;6504;53.766;9.626;2023-04-24T05:12:18;11.50;99.90
12872;DHT22;6504;53.766;9.626;2023-04-24T05:14:46;11.40;99.90
12872;DHT22;6504;53.766;9.626;2023-04-24T05:17:14;11.40;99.90
12872;DHT22;6504;53.766;9.626;2023-04-24T05:19:42;11.40;99.90
12872;DHT22;6504;53.766;9.626;2023-04-24T05:22:10;11.40;99.90
12872;DHT22;6504;53.766;9.626;2023-04-24T05:24:40;11.40;99.90
12872;DHT22;6504;53.766;9.626;2023-04-24T05:27:08;11.40;99.90
12872;DHT22;6504;53.766;9.626;2023-04-24T05:29:36;11.40;99.90
12872;DHT22;6504;53.766;9.626;2023-04-24T05:32:04;11.40;99.90
12872;DHT22;6504;53.766;9.626;2023-04-24T05:34:32;11.40;99.90
12872;DHT22;6504;53.766;9.626;2023-04-24T05:37:00;11.40;99.90
12872;DHT22;6504;53.766;9.626;2023-04-24T05:39:28;11.40;99.90
12872;DHT22;6504;53.766;9.626;2023-04-24T05:41:57;11.40;99.90
12872;DHT22;6504;53.766;9.626;2023-04-24T05:44:26;11.40;99.90
12872;DHT22;6504;53.766;9.626;2023-04-24T05:46:54;11.40;99.90
12872;DHT22;6504;53.766;9.626;2023-04-24T05:49:22;11.50;99.90
12872;DHT22;6504;53.766;9.626;2023-04-24T05:51:50;11.50;99.90
12872;DHT22;6504;53.766;9.626;2023-04-24T05:54:18;11.50;99.90
12872;DHT22;6504;53.766;9.626;2023-04-24T05:56:46;11.50;99.90
12872;DHT22;6504;53.766;9.626;2023-04-24T05:59:16;11.50;99.90
12872;DHT22;6504;53.766;9.626;2023-04-24T06:01:44;11.60;99.90
12872;DHT22;6504;53.766;9.626;2023-04-24T06:04:12;11.60;99.90
12872;DHT22;6504;53.766;9.626;2023-04-24T06:06:41;11.60;99.90
12872;DHT22;6504;53.766;9.626;2023-04-24T06:09:09;11.70;99.90
12872;DHT22;6504;53.766;9.626;2023-04-24T06:11:38;11.70;99.90
12872;DHT22;6504;53.766;9.626;2023-04-24T06:14:06;11.70;99.90
12872;DHT22;6504;53.766;9.626;2023-04-24T06:16:36;11.70;99.90
12872;DHT22;6504;53.766;9.626;2023-04-24T06:19:05;11.70;99.90
12872;DHT22;6504;53.766;9.626;2023-04-24T06:21:33;11.80;99.90
12872;DHT22;6504;53.766;9.626;2023-04-24T06:24:02;11.80;99.90
12872;DHT22;6504;53.766;9.626;2023-04-24T06:26:31;11.80;99.90
12872;DHT22;6504;53.766;9.626;2023-04-24T06:28:59;11.80;99.90
12872;DHT22;6504;53.766;9.626;2023-04-24T06:31:27;11.80;99.90
12872;DHT22;6504;53.766;9.626;2023-04-24T06:33:56;11.90;99.90
12872;DHT22;6504;53.766;9.626;2023-04-24T06:36:24;11.90;99.90
12872;DHT22;6504;53.766;9.626;2023-04-24T06:38:53;12.00;99.90
12872;DHT22;6504;53.766;9.626;2023-04-24T06:41:21;11.90;99.90
12872;DHT22;6504;53.766;9.626;2023-04-24T06:43:49;12.00;99.90
12872;DHT22;6504;53.766;9.626;2023-04-24T06:46:17;12.00;99.90
12872;DHT22;6504;53.766;9.626;2023-04-24T06:48:45;12.00;99.90
12872;DHT22;6504;53.766;9.626;2023-04-24T06:51:15;12.00;99.90
12872;DHT22;6504;53.766;9.626;2023-04-24T06:53:44;12.10;99.90
12872;DHT22;6504;53.766;9.626;2023-04-24T06:56:14;12.10;99.90
12872;DHT22;6504;53.766;9.626;2023-04-24T06:58:42;12.10;99.90
12872;DHT22;6504;53.766;9.626;2023-04-24T07:01:12;12.10;99.90
12872;DHT22;6504;53.766;9.626;2023-04-24T07:03:40;12.10;99.90
12872;DHT22;6504;53.766;9.626;2023-04-24T07:06:09;12.20;99.90
12872;DHT22;6504;53.766;9.626;2023-04-24T07:08:39;12.20;99.90
12872;DHT22;6504;53.766;9.626;2023-04-24T07:11:08;12.20;99.90
12872;DHT22;6504;53.766;9.626;2023-04-24T07:13:36;12.20;99.90
12872;DHT22;6504;53.766;9.626;2023-04-24T07:16:08;12.20;99.90
12872;DHT22;6504;53.766;9.626;2023-04-24T07:18:37;12.20;99.90
12872;DHT22;6504;53.766;9.626;2023-04-24T07:21:06;12.20;99.90
12872;DHT22;6504;53.766;9.626;2023-04-24T07:23:34;12.10;99.90
12872;DHT22;6504;53.766;9.626;2023-04-24T07:26:04;12.20;99.90
12872;DHT22;6504;53.766;9.626;2023-04-24T07:28:32;12.10;99.90
12872;DHT22;6504;53.766;9.626;2023-04-24T07:31:00;12.10;99.90
12872;DHT22;6504;53.766;9.626;2023-04-24T07:33:28;12.10;99.90
12872;DHT22;6504;53.766;9.626;2023-04-24T07:35:57;12.10;99.90
12872;DHT22;6504;53.766;9.626;2023-04-24T07:38:25;12.10;99.90
12872;DHT22;6504;53.766;9.626;2023-04-24T07:40:53;12.10;99.90
12872;DHT22;6504;53.766;9.626;2023-04-24T07:43:23;12.10;99.90
12872;DHT22;6504;53.766;9.626;2023-04-24T07:45:51;12.20;99.90
12872;DHT22;6504;53.766;9.626;2023-04-24T07:48:20;12.20;99.90
12872;DHT22;6504;53.766;9.626;2023-04-24T07:50:49;12.30;99.90
12872;DHT22;6504;53.766;9.626;2023-04-24T07:53:18;12.30;99.90
12872;DHT22;6504;53.766;9.626;2023-04-24T07:55:46;12.30;99.90
12872;DHT22;6504;53.766;9.626;2023-04-24T07:58:14;12.40;99.90
12872;DHT22;6504;53.766;9.626;2023-04-24T08:00:43;12.40;99.90
12872;DHT22;6504;53.766;9.626;2023-04-24T08:03:12;12.50;99.90
12872;DHT22;6504;53.766;9.626;2023-04-24T08:05:41;12.50;99.90
12872;DHT22;6504;53.766;9.626;2023-04-24T08:08:09;12.60;99.90
12872;DHT22;6504;53.766;9.626;2023-04-24T08:10:37;12.60;99.90
12872;DHT22;6504;53.766;9.626;2023-04-24T08:13:06;12.60;99.90
12872;DHT22;6504;53.766;9.626;2023-04-24T08:15:34;12.70;99.90
12872;DHT22;6504;53.766;9.626;2023-04-24T08:18:03;12.70;99.90
12872;DHT22;6504;53.766;9.626;2023-04-24T08:20:32;12.70;99.90
12872;DHT22;6504;53.766;9.626;2023-04-24T08:23:00;12.70;99.90
12872;DHT22;6504;53.766;9.626;2023-04-24T08:25:28;12.70;99.90
12872;DHT22;6504;53.766;9.626;2023-04-24T08:27:56;12.70;99.90
12872;DHT22;6504;53.766;9.626;2023-04-24T08:30:24;12.70;99.90
12872;DHT22;6504;53.766;9.626;2023-04-24T08:32:52;12.70;99.90
12872;DHT22;6504;53.766;9.626;2023-04-24T08:35:21;12.60;99.90
12872;DHT22;6504;53.766;9.626;2023-04-24T08:37:49;12.70;99.90
12872;DHT22;6504;53.766;9.626;2023-04-24T08:40:18;12.70;99.90
12872;DHT22;6504;53.766;9.626;2023-04-24T08:42:47;12.80;99.90
12872;DHT22;6504;53.766;9.626;2023-04-24T08:45:18;12.90;99.90
12872;DHT22;6504;53.766;9.626;2023-04-24T08:47:46;12.90;99.90
12872;DHT22;6504;53.766;9.626;2023-04-24T08:50:16;13.00;99.90
12872;DHT22;6504;53.766;9.626;2023-04-24T08:52:48;13.00;99.90
12872;DHT22;6504;53.766;9.626;2023-04-24T08:55:17;13.10;99.90
12872;DHT22;6504;53.766;9.626;2023-04-24T08:57:50;13.10;99.90
12872;DHT22;6504;53.766;9.626;2023-04-24T09:00:20;13.10;99.90
12872;DHT22;6504;53.766;9.626;2023-04-24T09:02:50;13.10;99.90
12872;DHT22;6504;53.766;9.626;2023-04-24T09:05:18;13.10;99.90
12872;DHT22;6504;53.766;9.626;2023-04-24T09:07:53;13.10;99.90
12872;DHT22;6504;53.766;9.626;2023-04-24T09:10:23;13.10;99.90
12872;DHT22;6504;53.766;9.626;2023-04-24T09:12:52;13.10;99.90
12872;DHT22;6504;53.766;9.626;2023-04-24T09:15:20;13.10;99.90
12872;DHT22;6504;53.766;9.626;2023-04-24T09:17:48;13.20;99.90
12872;DHT22;6504;53.766;9.626;2023-04-24T09:20:16;13.10;99.90
12872;DHT22;6504;53.766;9.626;2023-04-24T09:22:45;13.10;99.90
12872;DHT22;6504;53.766;9.626;2023-04-24T09:25:14;13.00;99.90
12872;DHT22;6504;53.766;9.626;2023-04-24T09:27:43;13.00;99.90
12872;DHT22;6504;53.766;9.626;2023-04-24T09:30:13;13.10;99.90
12872;DHT22;6504;53.766;9.626;2023-04-24T09:32:41;13.10;99.90
12872;DHT22;6504;53.766;9.626;2023-04-24T09:35:11;13.10;99.90
12872;DHT22;6504;53.766;9.626;2023-04-24T09:37:42;13.20;99.90
12872;DHT22;6504;53.766;9.626;2023-04-24T09:40:16;13.20;99.90
12872;DHT22;6504;53.766;9.626;2023-04-24T09:42:46;13.30;99.90
12872;DHT22;6504;53.766;9.626;2023-04-24T09:45:14;13.30;99.90
12872;DHT22;6504;53.766;9.626;2023-04-24T09:47:42;13.30;99.90
12872;DHT22;6504;53.766;9.626;2023-04-24T09:50:13;13.30;99.90
12872;DHT22;6504;53.766;9.626;2023-04-24T09:52:46;13.20;99.90
12872;DHT22;6504;53.766;9.626;2023-04-24T09:55:18;13.20;99.90
12872;DHT22;6504;53.766;9.626;2023-04-24T09:57:50;13.20;99.90
12872;DHT22;6504;53.766;9.626;2023-04-24T10:00:22;13.10;99.90
12872;DHT22;6504;53.766;9.626;2023-04-24T10:02:51;13.10;99.90
12872;DHT22;6504;53.766;9.626;2023-04-24T10:05:27;13.10;99.90
12872;DHT22;6504;53.766;9.626;2023-04-24T10:08:00;13.10;99.90
12872;DHT22;6504;53.766;9.626;2023-04-24T10:10:31;13.00;99.90
12872;DHT22;6504;53.766;9.626;2023-04-24T10:13:00;13.00;99.90
12872;DHT22;6504;53.766;9.626;2023-04-24T10:15:28;12.90;99.90
12872;DHT22;6504;53.766;9.626;2023-04-24T10:17:57;13.00;99.90
12872;DHT22;6504;53.766;9.626;2023-04-24T10:20:28;12.90;99.90
12872;DHT22;6504;53.766;9.626;2023-04-24T10:22:58;12.90;99.90
12872;DHT22;6504;53.766;9.626;2023-04-24T10:25:27;12.90;99.90
12872;DHT22;6504;53.766;9.626;2023-04-24T10:27:58;12.90;99.90
12872;DHT22;6504;53.766;9.626;2023-04-24T10:30:28;12.90;99.90
12872;DHT22;6504;53.766;9.626;2023-04-24T10:32:56;12.80;99.90
12872;DHT22;6504;53.766;9.626;2023-04-24T10:35:24;12.70;99.90
12872;DHT22;6504;53.766;9.626;2023-04-24T10:37:56;12.70;99.90
12872;DHT22;6504;53.766;9.626;2023-04-24T10:40:26;12.70;99.90
12872;DHT22;6504;53.766;9.626;2023-04-24T10:42:57;12.70;99.90
12872;DHT22;6504;53.766;9.626;2023-04-24T10:45:25;12.80;99.90
12872;DHT22;6504;53.766;9.626;2023-04-24T10:47:56;12.80;99.90
12872;DHT22;6504;53.766;9.626;2023-04-24T10:50:26;12.90;99.90
12872;DHT22;6504;53.766;9.626;2023-04-24T10:53:05;12.90;99.90
12872;DHT22;6504;53.766;9.626;2023-04-24T10:55:42;12.90;99.90
12872;DHT22;6504;53.766;9.626;2023-04-24T10:58:12;12.90;99.90
12872;DHT22;6504;53.766;9.626;2023-04-24T11:00:42;12.90;99.90
12872;DHT22;6504;53.766;9.626;2023-04-24T11:03:25;12.90;99.90
12872;DHT22;6504;53.766;9.626;2023-04-24T11:05:59;12.90;99.90
12872;DHT22;6504;53.766;9.626;2023-04-24T11:08:32;12.80;99.90
12872;DHT22;6504;53.766;9.626;2023-04-24T11:11:08;12.90;99.90
12872;DHT22;6504;53.766;9.626;2023-04-24T11:14:06;12.90;99.90
12872;DHT22;6504;53.766;9.626;2023-04-24T11:16:41;12.90;99.90
12872;DHT22;6504;53.766;9.626;2023-04-24T11:19:20;12.90;99.90
12872;DHT22;6504;53.766;9.626;2023-04-24T11:21:54;13.00;99.90
12872;DHT22;6504;53.766;9.626;2023-04-24T11:24:30;13.00;99.90
12872;DHT22;6504;53.766;9.626;2023-04-24T11:27:00;13.10;99.90
12872;DHT22;6504;53.766;9.626;2023-04-24T11:29:41;13.00;99.90
12872;DHT22;6504;53.766;9.626;2023-04-24T11:32:24;13.00;99.90
12872;DHT22;6504;53.766;9.626;2023-04-24T11:34:54;13.00;99.90
12872;DHT22;6504;53.766;9.626;2023-04-24T11:37:27;12.90;99.90
12872;DHT22;6504;53.766;9.626;2023-04-24T11:39:57;12.80;99.90
12872;DHT22;6504;53.766;9.626;2023-04-24T11:42:28;12.80;99.90
12872;DHT22;6504;53.766;9.626;2023-04-24T11:44:57;12.70;99.90
12872;DHT22;6504;53.766;9.626;2023-04-24T11:47:28;12.70;99.90
12872;DHT22;6504;53.766;9.626;2023-04-24T11:49:58;12.70;99.90
12872;DHT22;6504;53.766;9.626;2023-04-24T11:52:28;12.70;99.90
12872;DHT22;6504;53.766;9.626;2023-04-24T11:54:56;12.70;99.90
12872;DHT22;6504;53.766;9.626;2023-04-24T11:57:26;12.70;99.90
12872;DHT22;6504;53.766;9.626;2023-04-24T11:59:57;12.60;99.90
12872;DHT22;6504;53.766;9.626;2023-04-24T12:02:26;12.60;99.90
12872;DHT22;6504;53.766;9.626;2023-04-24T12:04:55;12.60;99.90
12872;DHT22;6504;53.766;9.626;2023-04-24T12:07:23;12.60;99.90
12872;DHT22;6504;53.766;9.626;2023-04-24T12:09:57;12.60;99.90
12872;DHT22;6504;53.766;9.626;2023-04-24T12:12:27;12.60;99.90
12872;DHT22;6504;53.766;9.626;2023-04-24T12:14:57;12.60;99.90
12872;DHT22;6504;53.766;9.626;2023-04-24T12:17:27;12.60;99.90
12872;DHT22;6504;53.766;9.626;2023-04-24T12:19:59;12.60;99.90
12872;DHT22;6504;53.766;9.626;2023-04-24T12:22:42;12.60;99.90
12872;DHT22;6504;53.766;9.626;2023-04-24T12:25:12;12.60;99.90
12872;DHT22;6504;53.766;9.626;2023-04-24T12:27:40;12.60;99.90
12872;DHT22;6504;53.766;9.626;2023-04-24T12:30:13;12.50;99.90
12872;DHT22;6504;53.766;9.626;2023-04-24T12:32:42;12.50;99.90
12872;DHT22;6504;53.766;9.626;2023-04-24T12:35:11;12.50;99.90
12872;DHT22;6504;53.766;9.626;2023-04-24T12:37:42;12.50;99.90
12872;DHT22;6504;53.766;9.626;2023-04-24T12:40:14;12.50;99.90
12872;DHT22;6504;53.766;9.626;2023-04-24T12:42:43;12.50;99.90
12872;DHT22;6504;53.766;9.626;2023-04-24T12:45:13;12.50;99.90
12872;DHT22;6504;53.766;9.626;2023-04-24T12:47:42;12.50;99.90
12872;DHT22;6504;53.766;9.626;2023-04-24T12:50:12;12.50;99.90
12872;DHT22;6504;53.766;9.626;2023-04-24T12:52:41;12.50;99.90
12872;DHT22;6504;53.766;9.626;2023-04-24T12:55:10;12.50;99.90
12872;DHT22;6504;53.766;9.626;2023-04-24T12:57:39;12.50;99.90
12872;DHT22;6504;53.766;9.626;2023-04-24T13:00:08;12.50;99.90
12872;DHT22;6504;53.766;9.626;2023-04-24T13:02:38;12.40;99.90
12872;DHT22;6504;53.766;9.626;2023-04-24T13:05:07;12.40;99.90
12872;DHT22;6504;53.766;9.626;2023-04-24T13:07:35;12.40;99.90
12872;DHT22;6504;53.766;9.626;2023-04-24T13:10:04;12.50;99.90
12872;DHT22;6504;53.766;9.626;2023-04-24T13:12:32;12.50;99.90
12872;DHT22;6504;53.766;9.626;2023-04-24T13:15:00;12.50;99.90
12872;DHT22;6504;53.766;9.626;2023-04-24T13:17:29;12.50;99.90
12872;DHT22;6504;53.766;9.626;2023-04-24T13:19:58;12.50;99.90
12872;DHT22;6504;53.766;9.626;2023-04-24T13:22:26;12.50;99.90
12872;DHT22;6504;53.766;9.626;2023-04-24T13:24:55;12.50;99.90
12872;DHT22;6504;53.766;9.626;2023-04-24T13:27:24;12.40;99.90
12872;DHT22;6504;53.766;9.626;2023-04-24T13:29:52;12.40;99.90
12872;DHT22;6504;53.766;9.626;2023-04-24T13:32:20;12.50;99.90
12872;DHT22;6504;53.766;9.626;2023-04-24T13:34:48;12.40;99.90
12872;DHT22;6504;53.766;9.626;2023-04-24T13:37:17;12.40;99.90
12872;DHT22;6504;53.766;9.626;2023-04-24T13:39:45;12.40;99.90
12872;DHT22;6504;53.766;9.626;2023-04-24T13:42:13;12.50;99.90
12872;DHT22;6504;53.766;9.626;2023-04-24T13:44:41;12.40;99.90
12872;DHT22;6504;53.766;9.626;2023-04-24T13:47:09;12.40;99.90
12872;DHT22;6504;53.766;9.626;2023-04-24T13:49:37;12.40;99.90
12872;DHT22;6504;53.766;9.626;2023-04-24T13:52:05;12.30;99.90
12872;DHT22;6504;53.766;9.626;2023-04-24T13:54:35;12.30;99.90
12872;DHT22;6504;53.766;9.626;2023-04-24T13:57:03;12.30;99.90
12872;DHT22;6504;53.766;9.626;2023-04-24T13:59:31;12.20;99.90
12872;DHT22;6504;53.766;9.626;2023-04-24T14:01:59;12.10;99.90
12872;DHT22;6504;53.766;9.626;2023-04-24T14:04:27;12.00;99.90
12872;DHT22;6504;53.766;9.626;2023-04-24T14:06:56;11.90;99.90
12872;DHT22;6504;53.766;9.626;2023-04-24T14:09:24;11.80;99.90
12872;DHT22;6504;53.766;9.626;2023-04-24T14:11:53;11.70;99.90
12872;DHT22;6504;53.766;9.626;2023-04-24T14:14:21;11.70;99.90
12872;DHT22;6504;53.766;9.626;2023-04-24T14:16:49;11.60;99.90
12872;DHT22;6504;53.766;9.626;2023-04-24T14:19:17;11.60;99.90
12872;DHT22;6504;53.766;9.626;2023-04-24T14:21:45;11.60;99.90
12872;DHT22;6504;53.766;9.626;2023-04-24T14:24:13;11.60;99.90
12872;DHT22;6504;53.766;9.626;2023-04-24T14:26:42;11.60;99.90
12872;DHT22;6504;53.766;9.626;2023-04-24T14:29:11;11.60;99.90
12872;DHT22;6504;53.766;9.626;2023-04-24T14:31:41;11.60;99.90
12872;DHT22;6504;53.766;9.626;2023-04-24T14:34:09;11.50;99.90
12872;DHT22;6504;53.766;9.626;2023-04-24T14:36:37;11.40;99.90
12872;DHT22;6504;53.766;9.626;2023-04-24T14:39:06;11.40;99.90
12872;DHT22;6504;53.766;9.626;2023-04-24T14:41:34;11.40;99.90
12872;DHT22;6504;53.766;9.626;2023-04-24T14:44:04;11.30;99.90
12872;DHT22;6504;53.766;9.626;2023-04-24T14:46:33;11.20;99.90
12872;DHT22;6504;53.766;9.626;2023-04-24T14:49:01;11.10;99.90
12872;DHT22;6504;53.766;9.626;2023-04-24T14:51:29;11.00;99.90
12872;DHT22;6504;53.766;9.626;2023-04-24T14:53:58;10.90;99.90
12872;DHT22;6504;53.766;9.626;2023-04-24T14:56:26;10.90;99.90
12872;DHT22;6504;53.766;9.626;2023-04-24T14:58:55;10.80;99.90
12872;DHT22;6504;53.766;9.626;2023-04-24T15:01:23;10.80;99.90
12872;DHT22;6504;53.766;9.626;2023-04-24T15:03:53;10.80;99.90
12872;DHT22;6504;53.766;9.626;2023-04-24T15:06:21;10.80;99.90
12872;DHT22;6504;53.766;9.626;2023-04-24T15:08:49;10.70;99.90
12872;DHT22;6504;53.766;9.626;2023-04-24T15:11:17;10.70;99.90
12872;DHT22;6504;53.766;9.626;2023-04-24T15:13:46;10.70;99.90
12872;DHT22;6504;53.766;9.626;2023-04-24T15:16:15;10.60;99.90
12872;DHT22;6504;53.766;9.626;2023-04-24T15:18:43;10.60;99.90
12872;DHT22;6504;53.766;9.626;2023-04-24T15:21:12;10.50;99.90
12872;DHT22;6504;53.766;9.626;2023-04-24T15:23:41;10.40;99.90
12872;DHT22;6504;53.766;9.626;2023-04-24T15:26:09;10.40;99.90
12872;DHT22;6504;53.766;9.626;2023-04-24T15:28:37;10.30;99.90
12872;DHT22;6504;53.766;9.626;2023-04-24T15:31:05;10.20;99.90
12872;DHT22;6504;53.766;9.626;2023-04-24T15:33:33;10.10;99.90
12872;DHT22;6504;53.766;9.626;2023-04-24T15:36:01;10.10;99.90
12872;DHT22;6504;53.766;9.626;2023-04-24T15:38:30;10.00;99.90
12872;DHT22;6504;53.766;9.626;2023-04-24T15:40:58;10.00;99.90
12872;DHT22;6504;53.766;9.626;2023-04-24T15:43:26;9.90;99.90
12872;DHT22;6504;53.766;9.626;2023-04-24T15:45:57;9.90;99.90
12872;DHT22;6504;53.766;9.626;2023-04-24T15:48:26;9.80;99.90
12872;DHT22;6504;53.766;9.626;2023-04-24T15:50:55;9.80;99.90
12872;DHT22;6504;53.766;9.626;2023-04-24T15:53:23;9.70;99.90
12872;DHT22;6504;53.766;9.626;2023-04-24T15:55:54;9.70;99.90
12872;DHT22;6504;53.766;9.626;2023-04-24T15:58:23;9.60;99.90